Time;durP1;ratioP1;P1;durP2;ratioP2;P2;SDS_P1;SDS_P2;PMS_P1;PMS_P2;Temp;Humidity;BMP_temperature;BMP_pressure;BME280_temperature;BME280_humidity;BME280_pressure;Samples;Min_cycle;Max_cycle;Signal;HPM_P1;HPM_P2
2022/11/05 05:55:44;;;;;;;4.60;2.90;;;9.80;99.90;;;;;;11612210;23;20273;-75
2022/11/05 06:00:46;;;;;;;5.22;3.50;;;9.90;99.90;;;;;;10278178;28;20070;-76
2022/11/05 06:05:48;;;;;;;6.18;3.80;;;9.90;99.90;;;;;;10245056;29;20054;-78
2022/11/05 06:10:52;;;;;;;5.97;3.83;;;9.90;99.90;;;;;;10242910;28;20047;-75
2022/11/05 06:15:59;;;;;;;5.07;3.40;;;9.90;99.90;;;;;;10247753;28;20070;-76
2022/11/05 06:21:02;;;;;;;6.63;3.55;;;9.90;99.90;;;;;;10263226;28;20050;-77
2022/11/05 06:26:09;;;;;;;9.15;3.65;;;9.90;99.90;;;;;;10253099;28;20043;-76
2022/11/05 06:31:13;;;;;;;5.32;3.08;;;9.90;99.90;;;;;;10255326;28;20102;-76
2022/11/05 06:36:18;;;;;;;5.60;2.72;;;9.90;99.90;;;;;;10259289;28;20459;-76
2022/11/05 06:41:21;;;;;;;4.60;2.40;;;9.90;99.90;;;;;;10273264;28;20106;-76
2022/11/05 06:46:23;;;;;;;4.43;2.50;;;9.90;99.90;;;;;;10268309;28;20553;-76
2022/11/05 06:51:25;;;;;;;5.97;2.67;;;9.90;99.90;;;;;;10238491;28;20089;-75
2022/11/05 06:56:29;;;;;;;6.20;2.70;;;9.90;99.90;;;;;;10293728;28;20392;-75
2022/11/05 07:01:31;;;;;;;5.68;2.75;;;9.90;99.90;;;;;;10285626;28;20053;-75
2022/11/05 07:06:33;;;;;;;7.22;2.58;;;9.80;99.90;;;;;;10276255;28;20054;-75
2022/11/05 07:11:36;;;;;;;3.95;2.55;;;9.90;99.90;;;;;;10291533;28;20484;-75
2022/11/05 07:16:38;;;;;;;5.15;2.80;;;9.90;99.90;;;;;;10275949;28;20082;-75
2022/11/05 07:21:40;;;;;;;5.20;2.97;;;9.90;99.90;;;;;;10272386;28;20097;-75
2022/11/05 07:26:43;;;;;;;5.10;3.00;;;9.90;99.90;;;;;;10272331;28;20059;-75
2022/11/05 07:31:46;;;;;;;5.10;3.40;;;10.00;99.90;;;;;;10256312;28;20102;-75
2022/11/05 07:36:48;;;;;;;5.30;3.10;;;10.00;99.90;;;;;;10265545;28;20059;-75
2022/11/05 07:41:52;;;;;;;5.75;2.67;;;10.00;99.90;;;;;;10265158;28;20047;-76
2022/11/05 07:46:54;;;;;;;5.50;3.30;;;10.00;99.90;;;;;;10274148;28;20050;-75
2022/11/05 07:51:56;;;;;;;4.80;3.03;;;9.80;99.90;;;;;;10282113;28;20054;-76
2022/11/05 07:57:00;;;;;;;4.25;2.60;;;9.80;99.90;;;;;;10272676;28;20051;-76
2022/11/05 08:02:02;;;;;;;4.38;2.10;;;9.70;99.90;;;;;;10287527;28;20046;-76
2022/11/05 08:07:03;;;;;;;3.40;1.80;;;9.70;99.90;;;;;;10287840;28;20511;-77
2022/11/05 08:12:08;;;;;;;3.30;1.80;;;9.80;99.90;;;;;;10283795;28;20051;-76
2022/11/05 08:17:10;;;;;;;4.43;1.80;;;9.90;99.90;;;;;;10253339;28;20497;-76
2022/11/05 08:22:12;;;;;;;4.45;2.47;;;9.90;99.90;;;;;;10257452;28;20047;-77
2022/11/05 08:27:15;;;;;;;3.75;1.98;;;9.90;99.90;;;;;;10264258;28;20079;-76
2022/11/05 08:32:17;;;;;;;5.03;2.08;;;9.90;99.90;;;;;;10268872;28;20055;-76
2022/11/05 08:37:19;;;;;;;3.55;1.90;;;9.90;99.90;;;;;;10261810;28;20086;-78
2022/11/05 08:42:22;;;;;;;5.28;2.20;;;9.90;99.90;;;;;;10261699;28;20465;-77
2022/11/05 08:47:24;;;;;;;3.97;2.40;;;9.90;99.90;;;;;;10269721;28;20047;-76
2022/11/05 08:52:26;;;;;;;3.85;2.05;;;9.80;99.90;;;;;;10279160;28;20113;-76
2022/11/05 08:57:29;;;;;;;3.55;1.85;;;9.90;99.90;;;;;;10275557;28;20508;-80
2022/11/05 09:02:31;;;;;;;4.28;2.05;;;9.90;99.90;;;;;;10249691;28;20086;-75
2022/11/05 09:07:33;;;;;;;3.60;2.03;;;10.00;99.90;;;;;;10251922;29;20513;-75
2022/11/05 09:12:36;;;;;;;3.97;2.22;;;10.10;99.90;;;;;;10252948;28;20130;-75
2022/11/05 09:17:38;;;;;;;3.67;1.98;;;10.10;99.90;;;;;;10252638;28;20053;-75
2022/11/05 09:22:40;;;;;;;4.85;2.30;;;10.00;99.90;;;;;;10252767;29;20441;-76
2022/11/05 09:27:44;;;;;;;4.88;2.78;;;10.00;99.90;;;;;;10252559;29;20047;-78
2022/11/05 09:32:46;;;;;;;5.35;2.95;;;10.10;99.90;;;;;;10251921;29;20058;-75
2022/11/05 09:37:48;;;;;;;6.50;4.15;;;10.10;99.90;;;;;;10252451;29;20051;-76
2022/11/05 09:42:53;;;;;;;7.10;4.70;;;9.90;99.90;;;;;;10252569;29;20059;-77
2022/11/05 09:48:00;;;;;;;6.45;4.20;;;9.90;99.90;;;;;;10252236;28;20098;-77
2022/11/05 09:53:03;;;;;;;7.63;4.97;;;10.10;99.90;;;;;;10251932;29;20162;-77
2022/11/05 09:58:21;;;;;;;7.03;4.40;;;10.20;99.90;;;;;;10251816;28;20410;-77
2022/11/05 10:03:25;;;;;;;6.88;4.60;;;10.20;99.90;;;;;;10251784;29;20055;-77
2022/11/05 10:08:31;;;;;;;7.38;3.65;;;10.40;99.90;;;;;;10251617;29;20110;-76
2022/11/05 10:13:41;;;;;;;5.10;3.10;;;10.40;99.90;;;;;;10251603;28;20051;-76
2022/11/05 10:18:48;;;;;;;5.15;3.10;;;10.40;99.90;;;;;;10268702;28;20504;-77
2022/11/05 10:23:51;;;;;;;6.75;3.50;;;10.40;99.90;;;;;;10271120;28;20047;-77
2022/11/05 10:28:54;;;;;;;6.15;3.13;;;10.70;99.90;;;;;;10260071;28;20094;-80
2022/11/05 10:34:01;;;;;;;4.88;3.20;;;10.60;99.90;;;;;;10263903;28;20051;-77
2022/11/05 10:39:11;;;;;;;5.13;2.70;;;10.60;99.90;;;;;;10255767;28;20050;-77
2022/11/05 10:44:30;;;;;;;4.50;2.50;;;10.60;99.90;;;;;;10274050;28;20047;-78
2022/11/05 10:49:48;;;;;;;5.75;3.25;;;10.50;99.90;;;;;;10271648;28;20102;-79
2022/11/05 10:54:53;;;;;;;8.02;3.72;;;10.50;99.90;;;;;;10262565;28;20564;-76
2022/11/05 11:00:20;;;;;;;6.20;4.00;;;10.60;99.90;;;;;;10278791;28;20071;-77
2022/11/05 11:05:27;;;;;;;6.15;3.67;;;10.70;99.90;;;;;;10245510;28;20077;-76
2022/11/05 11:10:34;;;;;;;7.15;3.72;;;10.60;99.90;;;;;;10248522;28;20075;-76
2022/11/05 11:15:37;;;;;;;5.65;3.40;;;10.60;99.90;;;;;;10265851;28;20485;-77
2022/11/05 11:20:44;;;;;;;6.93;3.13;;;10.70;99.90;;;;;;10245655;28;20126;-77
2022/11/05 11:25:50;;;;;;;6.82;3.70;;;10.70;99.90;;;;;;10252707;28;20120;-77
2022/11/05 11:31:05;;;;;;;7.95;3.70;;;10.60;99.90;;;;;;10279379;28;20054;-77
2022/11/05 11:36:09;;;;;;;6.63;3.78;;;10.50;99.90;;;;;;10276332;28;20087;-76
2022/11/05 11:41:34;;;;;;;7.18;3.83;;;10.60;99.90;;;;;;10226347;28;20062;-77
2022/11/05 11:46:38;;;;;;;7.90;4.05;;;10.60;99.90;;;;;;10289251;28;20051;-78
2022/11/05 11:51:43;;;;;;;8.25;4.43;;;10.70;99.90;;;;;;10291103;28;20109;-77
2022/11/05 11:56:48;;;;;;;7.70;4.57;;;10.60;99.90;;;;;;10256183;28;20421;-77
2022/11/05 12:02:28;;;;;;;8.68;4.20;;;10.70;99.90;;;;;;10250849;29;20401;-76
2022/11/05 12:07:45;;;;;;;8.48;4.50;;;10.80;99.90;;;;;;10250695;29;20051;-76
2022/11/05 12:12:57;;;;;;;8.85;5.22;;;10.80;99.90;;;;;;10249509;29;20104;-78
2022/11/05 12:18:04;;;;;;;9.00;5.35;;;10.90;99.90;;;;;;10248782;29;20453;-77
2022/11/05 12:23:40;;;;;;;9.98;6.35;;;10.90;99.90;;;;;;10249572;29;20118;-77
2022/11/05 12:29:01;;;;;;;10.18;5.70;;;10.90;99.90;;;;;;10248754;29;20114;-77
2022/11/05 12:34:26;;;;;;;10.02;5.63;;;11.10;99.90;;;;;;10249208;28;20468;-78
2022/11/05 12:40:01;;;;;;;11.18;6.60;;;11.20;99.90;;;;;;10245603;28;20129;-78
2022/11/05 12:45:18;;;;;;;10.05;5.85;;;11.30;99.90;;;;;;10258490;28;20070;-79
2022/11/05 12:50:28;;;;;;;10.00;5.90;;;11.30;99.90;;;;;;10268069;28;20504;-78
2022/11/05 12:55:36;;;;;;;8.55;5.60;;;11.20;99.90;;;;;;10248630;28;20487;-78
2022/11/05 13:00:44;;;;;;;10.80;6.37;;;11.30;99.90;;;;;;10253025;28;20081;-78
2022/11/05 13:05:52;;;;;;;9.65;5.28;;;11.40;99.90;;;;;;10276243;28;20117;-78
2022/11/05 13:10:59;;;;;;;16.85;8.77;;;11.40;99.90;;;;;;10248084;28;20149;-78
2022/11/05 13:16:11;;;;;;;8.73;5.60;;;11.60;99.90;;;;;;10247457;28;20090;-78
2022/11/05 13:21:16;;;;;;;9.02;4.68;;;11.60;99.90;;;;;;10247425;28;20051;-78
2022/11/05 13:26:23;;;;;;;7.72;4.72;;;11.60;99.90;;;;;;10247396;28;20097;-78
2022/11/05 13:31:31;;;;;;;6.72;4.53;;;11.50;99.90;;;;;;10247517;28;20055;-78
2022/11/05 13:42:57;;;;;;;7.55;5.07;;;11.30;99.90;;;;;;10246889;29;20130;-76
2022/11/05 13:48:25;;;;;;;8.00;4.40;;;11.30;99.90;;;;;;10246859;29;20114;-76
2022/11/05 13:54:04;;;;;;;8.00;4.93;;;11.30;99.90;;;;;;10253981;28;20059;-76
2022/11/05 13:59:39;;;;;;;6.65;4.53;;;11.30;99.90;;;;;;10254263;29;20468;-76
2022/11/05 14:04:47;;;;;;;8.00;4.65;;;11.30;99.90;;;;;;10251488;29;20623;-77
2022/11/05 14:09:56;;;;;;;8.13;4.50;;;11.30;99.90;;;;;;10254938;29;20552;-76
2022/11/05 14:15:07;;;;;;;8.02;4.82;;;11.30;99.90;;;;;;10214024;29;20056;-75
2022/11/05 14:20:43;;;;;;;10.63;5.30;;;11.10;99.90;;;;;;10214759;29;20052;-76
2022/11/05 14:25:58;;;;;;;8.85;6.00;;;11.10;99.90;;;;;;10222915;29;20055;-77
2022/11/05 14:31:01;;;;;;;10.25;5.90;;;11.20;99.90;;;;;;10253447;28;20054;-77
2022/11/05 14:36:33;;;;;;;11.52;6.50;;;11.40;99.90;;;;;;10253000;28;20071;-77
2022/11/05 14:42:01;;;;;;;11.10;6.75;;;11.40;99.90;;;;;;10250794;29;20063;-76
2022/11/05 14:47:07;;;;;;;11.48;6.32;;;11.40;99.90;;;;;;10252708;29;20134;-76
2022/11/05 14:52:10;;;;;;;9.82;6.05;;;11.40;99.90;;;;;;10247814;28;20086;-77
2022/11/05 14:57:35;;;;;;;11.35;6.00;;;11.40;99.90;;;;;;10264858;28;20063;-76
2022/11/05 15:02:38;;;;;;;11.20;6.93;;;11.40;99.90;;;;;;10272435;28;20910;-76
2022/11/05 15:07:40;;;;;;;11.20;6.60;;;11.30;99.90;;;;;;10252296;28;20102;-76
2022/11/05 15:12:47;;;;;;;10.45;6.22;;;11.30;99.90;;;;;;10250184;28;20054;-77
2022/11/05 15:18:01;;;;;;;10.18;6.55;;;11.30;99.90;;;;;;10282807;28;20091;-76
2022/11/05 15:23:06;;;;;;;9.20;5.90;;;11.30;99.90;;;;;;10258074;28;20402;-77
2022/11/05 15:28:18;;;;;;;9.85;5.80;;;11.30;99.90;;;;;;10276643;28;20062;-78
2022/11/05 15:33:22;;;;;;;8.63;5.65;;;11.30;99.90;;;;;;10281175;28;20117;-77
2022/11/05 15:38:32;;;;;;;9.95;6.20;;;11.30;99.90;;;;;;10280700;28;20051;-78
2022/11/05 15:43:43;;;;;;;9.63;5.47;;;11.40;99.90;;;;;;10270890;28;20054;-76
2022/11/05 15:48:46;;;;;;;13.88;7.80;;;11.50;99.90;;;;;;10257964;28;20051;-78
2022/11/05 15:53:59;;;;;;;8.55;5.72;;;11.40;99.90;;;;;;10234055;28;20058;-78
2022/11/05 15:59:06;;;;;;;9.70;5.57;;;11.30;99.90;;;;;;10236291;28;20051;-78
2022/11/05 16:04:16;;;;;;;9.80;6.05;;;11.30;99.90;;;;;;10286381;28;20572;-76
2022/11/05 16:09:24;;;;;;;10.63;6.07;;;11.30;99.90;;;;;;10287468;28;20054;-78
2022/11/05 16:14:35;;;;;;;9.23;5.93;;;11.30;99.90;;;;;;10256941;28;20055;-77
2022/11/05 16:19:41;;;;;;;13.25;6.72;;;11.30;99.90;;;;;;10249654;29;20055;-77
2022/11/05 16:24:43;;;;;;;10.43;6.68;;;11.20;99.90;;;;;;10247798;28;20070;-77
2022/11/05 16:29:53;;;;;;;9.35;6.00;;;11.20;99.90;;;;;;10253298;28;20058;-77
2022/11/05 16:34:57;;;;;;;9.80;6.10;;;11.20;99.90;;;;;;10247647;28;20075;-75
2022/11/05 16:40:00;;;;;;;11.88;6.72;;;11.20;99.90;;;;;;10220548;29;20091;-76
2022/11/05 16:45:04;;;;;;;10.15;6.50;;;11.20;99.90;;;;;;10265467;28;20054;-76
2022/11/05 16:50:20;;;;;;;10.50;6.40;;;11.10;99.90;;;;;;10288254;28;20117;-78
2022/11/05 16:55:22;;;;;;;11.52;6.85;;;11.10;99.90;;;;;;10271247;28;20062;-81
2022/11/05 17:00:26;;;;;;;10.85;5.90;;;11.10;99.90;;;;;;10258301;28;20090;-76
2022/11/05 17:05:30;;;;;;;9.93;6.53;;;11.00;99.90;;;;;;10246848;29;20162;-79
2022/11/05 17:10:32;;;;;;;12.07;6.60;;;10.90;99.90;;;;;;10248148;28;20079;-77
2022/11/05 17:15:35;;;;;;;10.13;7.05;;;10.80;99.90;;;;;;10246304;28;20074;-76
2022/11/05 17:20:41;;;;;;;12.60;7.03;;;10.80;99.90;;;;;;10242389;28;20121;-76
2022/11/05 17:25:47;;;;;;;11.35;6.90;;;10.80;99.90;;;;;;10267921;28;20062;-75
2022/11/05 17:30:51;;;;;;;11.90;8.20;;;10.80;99.90;;;;;;10245980;28;20485;-77
2022/11/05 17:35:54;;;;;;;13.82;8.40;;;10.70;99.90;;;;;;10246930;29;20473;-78
2022/11/05 17:40:56;;;;;;;13.73;7.70;;;10.60;99.90;;;;;;10244261;29;20477;-77
2022/11/05 17:45:59;;;;;;;11.80;7.25;;;10.50;99.90;;;;;;10246640;29;20055;-77
2022/11/05 17:51:01;;;;;;;11.15;7.35;;;10.40;99.90;;;;;;10244703;29;20494;-77
2022/11/05 17:56:08;;;;;;;15.48;8.82;;;10.30;99.90;;;;;;10246289;28;20394;-77
2022/11/05 18:01:28;;;;;;;12.60;7.95;;;10.30;99.90;;;;;;10244889;28;20409;-77
2022/11/05 18:06:30;;;;;;;11.98;7.38;;;10.20;99.90;;;;;;10274065;28;20078;-78
2022/11/05 18:11:33;;;;;;;12.57;7.93;;;10.20;99.90;;;;;;10253422;28;20118;-77
2022/11/05 18:16:37;;;;;;;16.67;9.55;;;10.10;99.90;;;;;;10223393;29;20276;-77
2022/11/05 18:21:39;;;;;;;25.67;14.45;;;10.00;99.90;;;;;;10264982;28;20467;-77
2022/11/05 18:26:42;;;;;;;15.27;9.27;;;9.90;99.90;;;;;;10276363;28;20086;-77
2022/11/05 18:31:45;;;;;;;13.52;8.35;;;9.80;99.90;;;;;;10230131;29;20188;-77
2022/11/05 18:36:47;;;;;;;13.20;8.18;;;9.60;99.90;;;;;;10260213;28;20055;-78
2022/11/05 18:41:49;;;;;;;11.10;7.57;;;9.60;99.90;;;;;;10282800;28;20141;-78
2022/11/05 18:46:52;;;;;;;14.85;9.30;;;9.60;99.90;;;;;;10270426;28;20082;-76
2022/11/05 18:51:54;;;;;;;18.27;11.57;;;9.50;99.90;;;;;;10280934;28;20106;-76
2022/11/05 18:56:56;;;;;;;14.23;9.40;;;9.50;99.90;;;;;;10289741;28;20122;-76
2022/11/05 19:02:00;;;;;;;13.70;9.57;;;9.40;99.90;;;;;;10292040;28;20050;-77
2022/11/05 19:07:02;;;;;;;17.83;10.65;;;9.40;99.90;;;;;;10290748;28;20046;-75
2022/11/05 19:12:06;;;;;;;13.80;8.88;;;9.30;99.90;;;;;;10264303;28;20567;-76
2022/11/05 19:17:09;;;;;;;12.10;8.70;;;9.30;99.90;;;;;;10251922;29;20449;-75
2022/11/05 19:22:11;;;;;;;15.40;9.40;;;9.30;99.90;;;;;;10250523;28;20083;-76
2022/11/05 19:27:13;;;;;;;17.63;9.75;;;9.20;99.90;;;;;;10251476;28;20087;-76
2022/11/05 19:32:16;;;;;;;13.52;9.02;;;9.20;99.90;;;;;;10257531;28;20086;-78
2022/11/05 19:37:18;;;;;;;15.63;9.07;;;9.10;99.90;;;;;;10251687;28;20056;-77
2022/11/05 19:42:20;;;;;;;12.88;8.70;;;9.00;99.90;;;;;;10283286;28;20101;-78
2022/11/05 19:47:24;;;;;;;13.55;9.10;;;9.00;99.90;;;;;;10275947;28;20082;-79
2022/11/05 19:52:26;;;;;;;15.95;8.98;;;8.90;99.90;;;;;;10271821;28;20059;-78
2022/11/05 19:57:27;;;;;;;15.85;9.73;;;8.80;99.90;;;;;;10256934;28;20058;-78
2022/11/05 20:02:31;;;;;;;16.23;9.23;;;8.80;99.90;;;;;;10280683;28;20456;-77
2022/11/05 20:07:33;;;;;;;13.70;8.05;;;8.60;99.90;;;;;;10262079;28;20090;-75
2022/11/05 20:12:35;;;;;;;16.10;8.77;;;8.50;99.90;;;;;;10249035;28;20063;-76
2022/11/05 20:17:38;;;;;;;12.20;7.97;;;8.40;99.90;;;;;;10290214;28;20082;-81
2022/11/05 20:22:40;;;;;;;14.80;9.15;;;8.40;99.90;;;;;;10260520;28;20047;-77
2022/11/05 20:27:42;;;;;;;14.30;8.77;;;8.40;99.90;;;;;;10232003;28;20454;-76
2022/11/05 20:32:45;;;;;;;16.23;10.00;;;8.40;99.90;;;;;;10286263;28;20086;-76
2022/11/05 20:37:47;;;;;;;19.65;11.60;;;8.10;99.90;;;;;;10283300;28;20082;-76
2022/11/05 20:42:49;;;;;;;12.85;8.25;;;8.20;99.90;;;;;;10251530;28;20058;-76
2022/11/05 20:47:52;;;;;;;13.38;9.20;;;8.30;99.90;;;;;;10252048;28;20050;-75
2022/11/05 20:52:54;;;;;;;15.43;10.25;;;8.30;99.90;;;;;;10257619;28;20110;-75
2022/11/05 20:57:56;;;;;;;15.70;9.63;;;8.20;99.90;;;;;;10247865;28;20059;-75
2022/11/05 21:02:59;;;;;;;14.65;9.23;;;8.00;99.90;;;;;;10258787;28;20129;-75
2022/11/05 21:08:01;;;;;;;13.98;8.70;;;8.00;99.90;;;;;;10253207;29;20106;-76
2022/11/05 21:13:03;;;;;;;15.25;9.18;;;8.00;99.90;;;;;;10259756;28;20053;-75
2022/11/05 21:18:07;;;;;;;12.52;8.15;;;7.90;99.90;;;;;;10247320;28;20388;-76
2022/11/05 21:23:09;;;;;;;35.25;18.50;;;7.90;99.90;;;;;;10250294;28;20175;-76
2022/11/05 21:28:12;;;;;;;14.75;8.98;;;7.90;99.90;;;;;;10247871;28;20145;-76
2022/11/05 21:33:18;;;;;;;13.48;8.30;;;7.90;99.90;;;;;;10247388;29;20063;-76
2022/11/05 21:38:20;;;;;;;13.65;8.65;;;7.90;99.90;;;;;;10251616;28;20082;-76
2022/11/05 21:43:22;;;;;;;15.60;9.57;;;7.60;99.90;;;;;;10247416;28;20047;-76
2022/11/05 21:48:25;;;;;;;13.48;8.48;;;7.40;99.90;;;;;;10260177;28;20122;-76
2022/11/05 22:04:08;;;;;;;14.00;9.20;;;7.40;99.90;;;;;;10247890;29;20107;-76
2022/11/05 22:09:10;;;;;;;15.27;8.25;;;7.50;99.90;;;;;;10251217;29;20078;-76
2022/11/05 22:14:11;;;;;;;15.52;8.68;;;7.50;99.90;;;;;;10273446;28;20051;-75
2022/11/05 22:19:15;;;;;;;16.35;9.15;;;7.50;99.90;;;;;;10262818;28;20055;-75
2022/11/05 22:24:18;;;;;;;15.38;8.77;;;7.40;99.90;;;;;;10257636;28;20437;-75
2022/11/05 22:29:19;;;;;;;11.73;8.07;;;7.30;99.90;;;;;;10280572;28;20481;-75
2022/11/05 22:34:24;;;;;;;15.75;9.45;;;7.10;99.90;;;;;;10260925;28;20118;-75
2022/11/05 22:39:25;;;;;;;18.83;11.77;;;7.20;99.90;;;;;;10264443;28;20445;-75
2022/11/05 22:44:28;;;;;;;19.23;11.70;;;7.10;99.90;;;;;;10258713;28;20508;-75
2022/11/05 22:49:31;;;;;;;17.52;10.68;;;7.10;99.90;;;;;;10260048;28;20472;-75
2022/11/05 22:54:33;;;;;;;15.80;10.65;;;7.20;99.90;;;;;;10263394;28;20058;-76
2022/11/05 22:59:34;;;;;;;17.30;9.75;;;7.20;99.90;;;;;;10270206;28;20449;-76
